»·PEaware :: SWA2422 KPHX-KSAN

SWA2422 :: KPHX-KSAN

FLIGHT INFORMATION

Flight Status: Arrived
Operator:
Southwest Airlines
More flights by this operator :: More flights under this callsign
Pilot: Skye D. (10623)
Aircraft: BOEING 737-300
(B733)
More flights by this aircraft type
Origin: KPHX Phoenix Sky Harbor Intl
United States
Destination: KSAN San Diego Intl-Lindbergh
United States
More flights between these airports :: More routes between these airports
Route: +JUDTH6 MOHAK J2 HOGGZ LUCKI1
File this flight plan on PilotEdge
Remarks:
Altitude:
(Current/Filed)
34,000ft
Speed:
(Current/Filed)
442kts
Departed: 13-Feb-18 02:56 PM
Arrived: 13-Feb-18 03:57 PM
Distance/Time
Traveled:
264nm/1:01
Distance/Time
To Go:
Arrived

Flight Plot

Page will automatically refresh every two minutes.

Flight plan parsing failed; only flown route is shown


Map Options




Map Legend


Flown Route
Filed Route
Departure Airport
Arrival Airport
Navaid (VOR, NDB)
Fix

Horizontal Profiles

Position Reports

Time Latitude Longitude Heading Altitude Ground
Speed
13-Feb-18 14:40 33.434293 -111.999858 90 1141ft 0kts
13-Feb-18 14:41 33.434293 -111.999858 90 1141ft 0kts
13-Feb-18 14:42 33.434293 -111.999858 90 1141ft 0kts
13-Feb-18 14:43 33.434293 -111.999858 90 1141ft 0kts
13-Feb-18 14:44 33.434293 -111.999858 90 1141ft 0kts
13-Feb-18 14:45 33.434293 -111.999858 90 1141ft 0kts
13-Feb-18 14:46 33.434293 -111.999858 90 1141ft 0kts
13-Feb-18 14:47 33.434293 -111.999858 90 1141ft 0kts
13-Feb-18 14:48 33.434293 -111.999858 90 1141ft 0kts
13-Feb-18 14:49 33.434293 -111.999858 90 1141ft 0kts
13-Feb-18 14:50 33.434293 -111.999862 90 1141ft 1kts
13-Feb-18 14:51 33.434284 -112.000473 88 1141ft 2kts
13-Feb-18 14:52 33.433923 -112.000360 181 1141ft 3kts
13-Feb-18 14:53 33.433842 -112.000362 180 1141ft 0kts
13-Feb-18 14:54 33.433842 -112.000362 180 1141ft 0kts
13-Feb-18 14:55 33.433709 -112.000364 180 1141ft 3kts
13-Feb-18 14:56 33.432138 -112.001651 270 1141ft 13kts
13-Feb-18 14:57 33.432147 -112.006601 269 1141ft 20kts
13-Feb-18 14:58 33.432159 -112.013418 270 1141ft 30kts
13-Feb-18 14:59 33.432164 -112.020669 269 1141ft 23kts
13-Feb-18 15:00 33.432157 -112.024755 269 1141ft 5kts
13-Feb-18 15:01 33.432139 -112.026185 267 1141ft 3kts
13-Feb-18 15:02 33.431204 -112.026926 151 1141ft 4kts
13-Feb-18 15:03 33.431047 -112.014787 90 1142ft 135kts
13-Feb-18 15:04 33.432374 -111.972507 90 3324ft 164kts
13-Feb-18 15:05 33.433533 -111.927158 91 4540ft 226kts
13-Feb-18 15:06 33.424497 -111.864958 143 7238ft 227kts
13-Feb-18 15:07 33.375899 -111.851551 207 9746ft 231kts
13-Feb-18 15:08 33.354159 -111.903868 269 12112ft 249kts
13-Feb-18 15:09 33.361235 -111.984299 270 13107ft 314kts
13-Feb-18 15:10 33.329386 -112.070995 232 15247ft 320kts
13-Feb-18 15:11 33.278896 -112.153243 232 17591ft 327kts
13-Feb-18 15:12 33.227004 -112.237584 232 19557ft 339kts
13-Feb-18 15:13 33.174188 -112.323242 232 21530ft 343kts
13-Feb-18 15:14 33.119196 -112.412212 232 23218ft 350kts
13-Feb-18 15:15 33.063403 -112.502265 232 24836ft 354kts
13-Feb-18 15:16 33.008361 -112.590886 232 26277ft 357kts
13-Feb-18 15:17 32.955536 -112.686500 248 27463ft 367kts
13-Feb-18 15:18 32.939439 -112.801626 255 28498ft 375kts
13-Feb-18 15:19 32.925080 -112.914589 254 29928ft 365kts
13-Feb-18 15:20 32.909828 -113.027102 254 31029ft 362kts
13-Feb-18 15:21 32.894311 -113.138202 254 32088ft 359kts
13-Feb-18 15:22 32.878582 -113.250165 254 33213ft 354kts
13-Feb-18 15:23 32.862854 -113.362336 254 34030ft 356kts
13-Feb-18 15:24 32.846873 -113.475684 254 34153ft 363kts
13-Feb-18 15:25 32.830670 -113.589888 254 34115ft 362kts
13-Feb-18 15:26 32.814694 -113.703129 253 33898ft 361kts
13-Feb-18 15:27 32.798343 -113.816583 254 33910ft 366kts
13-Feb-18 15:28 32.781861 -113.931460 254 33908ft 364kts
13-Feb-18 15:29 32.774869 -114.048384 262 33915ft 371kts
13-Feb-18 15:30 32.778730 -114.167512 265 33909ft 373kts
13-Feb-18 15:31 32.783161 -114.277491 265 33907ft 374kts
13-Feb-18 15:32 32.789664 -114.396025 276 33904ft 385kts
13-Feb-18 15:33 32.822488 -114.514446 279 33909ft 389kts
13-Feb-18 15:34 32.854943 -114.632298 279 34028ft 388kts
13-Feb-18 15:35 32.879696 -114.749337 261 33912ft 368kts
13-Feb-18 15:36 32.876387 -114.866744 261 34116ft 368kts
13-Feb-18 15:37 32.873684 -114.984843 261 34160ft 368kts
13-Feb-18 15:38 32.870955 -115.101316 261 34166ft 368kts
13-Feb-18 15:39 32.868179 -115.216911 261 31967ft 359kts
13-Feb-18 15:40 32.865374 -115.328068 260 29309ft 353kts
13-Feb-18 15:41 32.851135 -115.438876 254 27115ft 342kts
13-Feb-18 15:42 32.834471 -115.546803 253 25234ft 338kts
13-Feb-18 15:43 32.817258 -115.651477 253 25198ft 347kts
13-Feb-18 15:44 32.801239 -115.751685 253 25050ft 341kts
13-Feb-18 15:45 32.784821 -115.855076 257 23191ft 333kts
13-Feb-18 15:46 32.777037 -115.958398 258 21245ft 325kts
13-Feb-18 15:47 32.769415 -116.060093 258 19312ft 320kts
13-Feb-18 15:48 32.761664 -116.162233 259 17130ft 314kts
13-Feb-18 15:49 32.753930 -116.262941 260 15241ft 312kts
13-Feb-18 15:50 32.746217 -116.359999 259 13533ft 302kts
13-Feb-18 15:51 32.739132 -116.450299 260 11578ft 292kts
13-Feb-18 15:52 32.731330 -116.540122 259 10471ft 272kts
13-Feb-18 15:53 32.723636 -116.619013 259 9339ft 265kts
13-Feb-18 15:54 32.716990 -116.697452 260 7989ft 255kts
13-Feb-18 15:55 32.711074 -116.774169 260 6784ft 256kts
13-Feb-18 15:56 32.697334 -116.851264 246 5277ft 263kts
13-Feb-18 15:57 32.676701 -116.919346 246 4751ft 209kts
13-Feb-18 15:58 32.682018 -116.977515 283 3933ft 200kts
13-Feb-18 15:59 32.694399 -117.028475 283 2960ft 169kts
13-Feb-18 16:00 32.705407 -117.073783 283 2389ft 168kts
13-Feb-18 16:01 32.714593 -117.111186 282 1574ft 141kts
13-Feb-18 16:02 32.723263 -117.146454 283 852ft 148kts
13-Feb-18 16:03 32.731208 -117.179917 283 80ft 124kts
13-Feb-18 16:04 32.735292 -117.196840 283 24ft 23kts
13-Feb-18 16:05 32.734768 -117.198376 166 24ft 1kts
13-Feb-18 16:06 32.734555 -117.198028 110 24ft 6kts
13-Feb-18 16:07 32.733758 -117.194738 107 24ft 7kts
13-Feb-18 16:08 32.732357 -117.195165 297 24ft 1kts
13-Feb-18 16:09 32.732570 -117.195497 309 24ft 0kts
13-Feb-18 16:10 32.732570 -117.195497 309 24ft 0kts

Navigation Log

Ident Type
Flight plan parsing failed, navigation log unavailable